createdAt,value
2023-04-24T00:00:28.665Z,84.00
2023-04-24T00:04:11.997Z,84.10
2023-04-24T00:07:54.352Z,84.30
2023-04-24T00:11:37.111Z,84.30
2023-04-24T00:15:18.848Z,84.60
2023-04-24T00:19:01.825Z,84.70
2023-04-24T00:22:43.596Z,85.60
2023-04-24T00:26:25.445Z,85.10
2023-04-24T00:30:07.890Z,85.20
2023-04-24T00:33:49.689Z,85.40
2023-04-24T00:37:31.404Z,85.40
2023-04-24T00:41:13.528Z,85.50
2023-04-24T00:44:55.278Z,85.50
2023-04-24T00:48:37.040Z,85.50
2023-04-24T00:52:18.788Z,85.50
2023-04-24T00:56:01.473Z,85.50
2023-04-24T00:59:44.216Z,86.30
2023-04-24T01:03:30.271Z,85.90
2023-04-24T01:07:12.495Z,85.90
2023-04-24T01:10:54.348Z,86.00
2023-04-24T01:14:36.261Z,86.20
2023-04-24T01:18:17.988Z,86.40
2023-04-24T01:22:03.425Z,86.60
2023-04-24T01:25:45.463Z,87.00
2023-04-24T01:29:27.188Z,87.40
2023-04-24T01:33:09.036Z,87.70
2023-04-24T01:36:51.294Z,88.00
2023-04-24T01:40:33.823Z,88.50
2023-04-24T01:44:15.638Z,88.50
2023-04-24T01:47:58.112Z,88.60
2023-04-24T01:51:40.159Z,88.80
2023-04-24T01:55:22.016Z,88.80
2023-04-24T01:59:05.096Z,88.90
2023-04-24T02:02:48.645Z,88.90
2023-04-24T02:06:32.194Z,88.80
2023-04-24T02:10:13.997Z,88.90
2023-04-24T02:13:55.757Z,88.70
2023-04-24T02:17:37.626Z,88.70
2023-04-24T02:21:19.382Z,88.60
2023-04-24T02:25:01.236Z,88.60
2023-04-24T02:28:42.957Z,89.00
2023-04-24T02:32:24.817Z,89.10
2023-04-24T02:36:06.679Z,89.30
2023-04-24T02:39:48.441Z,89.50
2023-04-24T02:43:30.265Z,89.70
2023-04-24T02:47:12.053Z,89.80
2023-04-24T02:50:54.116Z,89.70
2023-04-24T02:54:35.953Z,89.80
2023-04-24T02:58:18.280Z,89.80
2023-04-24T03:02:00.561Z,89.70
2023-04-24T03:05:42.289Z,89.60
2023-04-24T03:09:24.441Z,89.50
2023-04-24T03:13:06.306Z,89.70
2023-04-24T03:16:48.014Z,89.60
2023-04-24T03:20:30.437Z,89.60
2023-04-24T03:24:12.191Z,89.60
2023-04-24T03:27:55.717Z,89.60
2023-04-24T03:31:37.469Z,89.70
2023-04-24T03:35:19.252Z,89.70
2023-04-24T03:39:00.998Z,89.70
2023-04-24T03:42:42.758Z,89.90
2023-04-24T03:46:24.606Z,89.90
2023-04-24T03:50:06.826Z,90.00
2023-04-24T03:53:48.734Z,90.30
2023-04-24T03:57:30.498Z,90.10
2023-04-24T04:01:13.002Z,90.10
2023-04-24T04:04:54.854Z,90.10
2023-04-24T04:08:36.787Z,90.10
2023-04-24T04:12:18.563Z,90.20
2023-04-24T04:16:00.413Z,90.20
2023-04-24T04:19:43.181Z,90.30
2023-04-24T04:23:25.500Z,90.40
2023-04-24T04:27:07.899Z,90.40
2023-04-24T04:30:50.377Z,90.50
2023-04-24T04:34:32.423Z,90.50
2023-04-24T04:38:15.996Z,90.50
2023-04-24T04:41:57.930Z,90.50
2023-04-24T04:45:41.287Z,90.60
2023-04-24T04:49:24.562Z,90.70
2023-04-24T04:53:06.624Z,90.80
2023-04-24T04:56:50.730Z,90.80
2023-04-24T05:00:36.564Z,90.90
2023-04-24T05:04:18.445Z,91.00
2023-04-24T05:08:00.279Z,91.00
2023-04-24T05:11:42.027Z,91.00
2023-04-24T05:15:23.758Z,91.10
2023-04-24T05:19:05.757Z,91.20
2023-04-24T05:22:47.543Z,91.30
2023-04-24T05:26:29.297Z,91.40
2023-04-24T05:30:11.336Z,91.50
2023-04-24T05:33:53.085Z,91.50
2023-04-24T05:37:34.924Z,91.70
2023-04-24T05:41:16.736Z,91.80
2023-04-24T05:44:58.511Z,91.90
2023-04-24T05:48:40.335Z,92.10
2023-04-24T05:52:22.087Z,92.20
2023-04-24T05:56:03.852Z,92.20
2023-04-24T05:59:45.730Z,92.30
2023-04-24T06:03:28.409Z,92.40
2023-04-24T06:07:12.527Z,92.60
2023-04-24T06:10:54.289Z,92.70
2023-04-24T06:14:36.052Z,92.80
2023-04-24T06:18:18.022Z,92.90
2023-04-24T06:21:59.755Z,93.00
2023-04-24T06:25:41.989Z,93.10
2023-04-24T06:29:23.730Z,93.20
2023-04-24T06:33:18.807Z,93.30
2023-04-24T06:37:03.038Z,93.40
2023-04-24T06:40:45.160Z,93.50
2023-04-24T06:44:26.925Z,93.60
2023-04-24T06:48:08.698Z,93.80
2023-04-24T06:51:50.497Z,93.90
2023-04-24T06:55:32.279Z,94.30
2023-04-24T06:59:14.005Z,94.50
2023-04-24T07:02:55.936Z,95.00
2023-04-24T07:06:38.755Z,95.70
2023-04-24T07:10:21.192Z,95.90
2023-04-24T07:14:02.933Z,95.70
2023-04-24T07:17:45.370Z,95.50
2023-04-24T07:21:28.158Z,95.10
2023-04-24T07:25:10.131Z,94.90
2023-04-24T07:28:51.838Z,94.50
2023-04-24T07:32:33.565Z,94.20
2023-04-24T07:36:19.867Z,94.10
2023-04-24T07:40:04.809Z,94.00
2023-04-24T07:43:46.871Z,93.90
2023-04-24T07:47:28.693Z,93.70
2023-04-24T07:51:12.025Z,93.40
2023-04-24T07:54:59.320Z,93.30
2023-04-24T07:58:41.321Z,93.20
2023-04-24T08:02:28.073Z,92.80
2023-04-24T08:06:10.237Z,92.60
2023-04-24T08:09:52.038Z,92.30
2023-04-24T08:13:33.792Z,91.90
2023-04-24T08:17:15.781Z,91.70
2023-04-24T08:21:02.203Z,91.70
2023-04-24T08:24:44.886Z,91.40
2023-04-24T08:28:26.895Z,91.10
2023-04-24T08:32:08.701Z,90.90
2023-04-24T08:35:51.030Z,90.80
2023-04-24T08:39:32.923Z,90.70
2023-04-24T08:43:15.644Z,90.50
2023-04-24T08:46:57.761Z,90.40
2023-04-24T08:50:42.136Z,90.10
2023-04-24T08:54:24.294Z,89.70
2023-04-24T08:58:06.368Z,89.10
2023-04-24T09:01:50.726Z,89.50
2023-04-24T09:05:34.321Z,89.60
2023-04-24T09:09:17.501Z,89.50
2023-04-24T09:13:02.922Z,89.30
2023-04-24T09:16:44.941Z,89.40
2023-04-24T09:20:26.698Z,88.50
2023-04-24T09:24:18.577Z,87.00
2023-04-24T09:28:04.930Z,85.90
2023-04-24T09:31:47.240Z,85.50
2023-04-24T09:35:29.083Z,85.20
2023-04-24T09:39:16.734Z,85.30
2023-04-24T09:43:02.035Z,85.30
2023-04-24T09:46:45.800Z,85.50
2023-04-24T09:50:27.553Z,85.80
2023-04-24T09:54:20.914Z,85.10
2023-04-24T09:58:06.044Z,84.50
2023-04-24T10:01:50.225Z,84.50
2023-04-24T10:05:34.504Z,85.00
2023-04-24T10:09:17.860Z,84.50
2023-04-24T10:13:01.715Z,84.10
2023-04-24T10:16:44.652Z,82.60
2023-04-24T10:20:29.698Z,83.00
2023-04-24T10:24:12.676Z,82.20
2023-04-24T10:27:58.538Z,81.60
2023-04-24T10:31:41.547Z,80.60
2023-04-24T10:35:26.775Z,78.90
2023-04-24T10:39:12.829Z,78.70
2023-04-24T10:42:56.848Z,78.70
2023-04-24T10:46:43.532Z,77.80
2023-04-24T10:50:28.122Z,76.30
2023-04-24T10:54:26.678Z,76.00
2023-04-24T10:58:11.553Z,77.10
2023-04-24T11:01:56.559Z,76.20
2023-04-24T11:06:05.487Z,76.50
2023-04-24T11:09:47.374Z,76.70
2023-04-24T11:13:54.734Z,76.70
2023-04-24T11:17:39.217Z,76.20
2023-04-24T11:21:23.081Z,74.00
2023-04-24T11:25:05.729Z,73.50
2023-04-24T11:28:49.305Z,74.60
2023-04-24T11:32:34.232Z,74.70
2023-04-24T11:36:16.076Z,75.30
2023-04-24T11:39:59.831Z,75.40
2023-04-24T11:43:42.915Z,77.00
2023-04-24T11:47:33.693Z,78.20
2023-04-24T11:51:15.945Z,78.40
2023-04-24T11:54:58.453Z,78.90
2023-04-24T11:58:40.647Z,79.40
2023-04-24T12:02:28.605Z,79.80
2023-04-24T12:06:12.686Z,80.30
2023-04-24T12:10:02.321Z,80.50
2023-04-24T12:13:44.899Z,81.20
2023-04-24T12:17:29.653Z,81.20
2023-04-24T12:21:19.145Z,81.30
2023-04-24T12:25:08.685Z,81.40
2023-04-24T12:28:51.212Z,81.10
2023-04-24T12:32:33.588Z,81.90
2023-04-24T12:36:15.601Z,82.20
2023-04-24T12:40:13.070Z,82.80
2023-04-24T12:43:56.374Z,83.80
2023-04-24T12:47:38.162Z,84.30
2023-04-24T12:51:19.981Z,86.10
2023-04-24T12:55:02.118Z,84.10
2023-04-24T12:58:43.914Z,83.20
2023-04-24T13:02:27.832Z,80.40
2023-04-24T13:06:09.683Z,79.10
2023-04-24T13:09:52.552Z,76.80
2023-04-24T13:13:34.305Z,76.80
2023-04-24T13:17:16.470Z,73.10
2023-04-24T13:20:58.426Z,71.30
2023-04-24T13:24:43.504Z,70.50
2023-04-24T13:28:29.367Z,67.80
2023-04-24T13:32:11.324Z,68.40
2023-04-24T13:35:53.221Z,69.40
2023-04-24T13:39:34.974Z,69.20
2023-04-24T13:43:16.869Z,69.80
2023-04-24T13:46:59.754Z,70.50
2023-04-24T13:50:42.146Z,70.80
2023-04-24T13:54:26.693Z,71.30
2023-04-24T13:58:08.934Z,71.80
2023-04-24T14:01:51.014Z,72.40
2023-04-24T14:05:32.826Z,73.00
2023-04-24T14:09:14.650Z,73.30
2023-04-24T14:12:56.465Z,73.70
2023-04-24T14:16:38.375Z,75.20
2023-04-24T14:20:20.697Z,75.40
2023-04-24T14:24:02.496Z,76.90
2023-04-24T14:27:44.300Z,77.00
2023-04-24T14:31:26.086Z,77.20
2023-04-24T14:35:08.488Z,77.20
2023-04-24T14:38:50.889Z,76.50
2023-04-24T14:42:32.636Z,76.50
2023-04-24T14:46:14.446Z,76.10
2023-04-24T14:49:56.505Z,76.30
2023-04-24T14:53:38.356Z,76.80
2023-04-24T14:57:20.187Z,77.20
2023-04-24T15:01:02.024Z,78.00
2023-04-24T15:04:44.001Z,78.40
2023-04-24T15:08:25.984Z,78.30
2023-04-24T15:12:07.833Z,78.60
2023-04-24T15:15:49.677Z,79.40
2023-04-24T15:19:32.080Z,79.60
2023-04-24T15:23:14.125Z,80.30
2023-04-24T15:26:57.458Z,80.90
2023-04-24T15:30:40.630Z,81.60
2023-04-24T15:34:22.342Z,82.20
2023-04-24T15:38:05.128Z,82.60
2023-04-24T15:41:46.812Z,82.10
2023-04-24T15:45:28.673Z,81.30
2023-04-24T15:49:11.408Z,81.70
2023-04-24T15:52:53.170Z,82.30
2023-04-24T15:56:37.114Z,82.20
2023-04-24T16:00:19.298Z,82.70
2023-04-24T16:04:01.498Z,83.20
2023-04-24T16:07:43.558Z,83.70
2023-04-24T16:11:25.296Z,84.60
2023-04-24T16:15:07.655Z,84.20
2023-04-24T16:18:50.115Z,83.90
2023-04-24T16:22:32.211Z,83.20
2023-04-24T16:26:14.464Z,83.00
2023-04-24T16:29:57.205Z,83.70
2023-04-24T16:33:39.824Z,82.90
2023-04-24T16:37:21.882Z,82.50
2023-04-24T16:41:03.636Z,82.50
2023-04-24T16:44:45.513Z,82.30
2023-04-24T16:48:27.308Z,82.40
2023-04-24T16:52:11.640Z,82.40
2023-04-24T16:55:53.380Z,82.20
2023-04-24T16:59:35.515Z,82.20
2023-04-24T17:03:17.382Z,82.50
2023-04-24T17:06:59.434Z,82.60
2023-04-24T17:10:41.297Z,82.80
2023-04-24T17:14:26.650Z,82.80
2023-04-24T17:18:08.962Z,82.80
2023-04-24T17:21:50.883Z,83.00
2023-04-24T17:25:32.668Z,82.50
2023-04-24T17:29:15.646Z,82.70
2023-04-24T17:32:57.910Z,82.80
2023-04-24T17:36:39.838Z,82.90
2023-04-24T17:40:21.563Z,82.90
2023-04-24T17:44:03.401Z,83.00
2023-04-24T17:47:45.392Z,83.70
2023-04-24T17:51:27.700Z,83.80
2023-04-24T17:55:09.672Z,84.00
2023-04-24T17:58:52.321Z,84.30
2023-04-24T18:02:34.427Z,84.80
2023-04-24T18:06:17.671Z,85.20
2023-04-24T18:09:59.526Z,85.40
2023-04-24T18:13:41.386Z,85.70
2023-04-24T18:17:23.561Z,86.00
2023-04-24T18:21:05.361Z,86.20
2023-04-24T18:24:47.143Z,86.50
2023-04-24T18:28:31.422Z,86.40
2023-04-24T18:32:13.436Z,86.50
2023-04-24T18:35:55.323Z,86.50
2023-04-24T18:39:37.021Z,86.40
2023-04-24T18:43:18.757Z,86.10
2023-04-24T18:47:00.704Z,86.10
2023-04-24T18:50:42.662Z,86.40
2023-04-24T18:54:24.462Z,86.60
2023-04-24T18:58:06.492Z,86.60
2023-04-24T19:01:48.406Z,86.50
2023-04-24T19:05:30.226Z,86.40
2023-04-24T19:09:12.071Z,86.50
2023-04-24T19:12:56.751Z,86.60
2023-04-24T19:16:38.586Z,86.50
2023-04-24T19:20:20.912Z,86.60
2023-04-24T19:24:02.889Z,86.80
2023-04-24T19:27:44.698Z,86.80
2023-04-24T19:31:26.650Z,87.10
2023-04-24T19:35:08.793Z,87.30
2023-04-24T19:38:50.959Z,87.50
2023-04-24T19:42:43.334Z,87.70
2023-04-24T19:46:25.955Z,87.90
2023-04-24T19:50:08.124Z,88.00
2023-04-24T19:53:49.910Z,88.10
2023-04-24T19:57:31.690Z,88.20
2023-04-24T20:01:13.782Z,88.30
2023-04-24T20:04:55.928Z,88.40
2023-04-24T20:08:39.223Z,88.40
2023-04-24T20:12:20.999Z,88.60
2023-04-24T20:16:02.861Z,88.70
2023-04-24T20:19:47.184Z,88.70
2023-04-24T20:23:29.013Z,88.80
2023-04-24T20:27:13.075Z,88.80
2023-04-24T20:30:55.254Z,88.90
2023-04-24T20:34:37.436Z,89.10
2023-04-24T20:38:19.414Z,89.20
2023-04-24T20:42:01.192Z,89.20
2023-04-24T20:45:42.981Z,89.50
2023-04-24T20:49:24.769Z,89.50
2023-04-24T20:53:06.975Z,89.60
2023-04-24T20:56:48.773Z,89.60
2023-04-24T21:00:30.914Z,89.90
2023-04-24T21:04:12.737Z,90.00
2023-04-24T21:07:56.119Z,90.00
2023-04-24T21:11:37.902Z,90.00
2023-04-24T21:15:19.651Z,90.30
2023-04-24T21:19:01.481Z,90.10
2023-04-24T21:22:43.457Z,90.10
2023-04-24T21:26:25.462Z,90.20
2023-04-24T21:30:07.965Z,90.20
2023-04-24T21:33:50.145Z,90.10
2023-04-24T21:37:33.640Z,90.10
2023-04-24T21:41:15.418Z,90.10
2023-04-24T21:44:57.219Z,90.10
2023-04-24T21:48:38.956Z,90.10
2023-04-24T21:52:20.712Z,90.10
2023-04-24T21:56:02.561Z,90.10
2023-04-24T21:59:44.606Z,90.10
2023-04-24T22:03:26.646Z,90.30
2023-04-24T22:07:08.696Z,90.10
2023-04-24T22:10:51.905Z,90.10
2023-04-24T22:14:33.823Z,90.10
2023-04-24T22:18:17.669Z,90.00
2023-04-24T22:21:59.504Z,90.00
2023-04-24T22:25:41.264Z,90.00
2023-04-24T22:29:23.034Z,90.00
2023-04-24T22:33:04.954Z,90.00
2023-04-24T22:36:46.760Z,90.00
2023-04-24T22:40:28.509Z,90.10
2023-04-24T22:44:11.150Z,90.00
2023-04-24T22:47:53.850Z,90.00
2023-04-24T22:51:35.660Z,90.10
2023-04-24T22:55:17.504Z,90.10
2023-04-24T22:58:59.822Z,90.10
2023-04-24T23:02:42.772Z,90.20
2023-04-24T23:06:24.931Z,90.20
2023-04-24T23:10:07.328Z,90.20
2023-04-24T23:13:49.793Z,90.30
2023-04-24T23:17:31.897Z,90.30
2023-04-24T23:21:13.675Z,90.30
2023-04-24T23:24:55.532Z,90.20
2023-04-24T23:28:38.636Z,90.30
2023-04-24T23:32:20.550Z,90.30
2023-04-24T23:36:02.463Z,90.30
2023-04-24T23:39:44.502Z,90.30
2023-04-24T23:43:26.825Z,90.30
2023-04-24T23:47:08.629Z,90.40
2023-04-24T23:50:50.447Z,90.50
2023-04-24T23:54:32.267Z,90.50
2023-04-24T23:58:14.312Z,90.70
